sensor_id;sensor_type;location;lat;lon;timestamp;P1;durP1;ratioP1;P2;durP2;ratioP2
21356;SDS011;10836;53.068;18.234;2023-06-26T00:01:32;9.40;;;6.32;;
21356;SDS011;10836;53.068;18.234;2023-06-26T00:03:59;29.70;;;8.15;;
21356;SDS011;10836;53.068;18.234;2023-06-26T00:06:28;17.30;;;7.28;;
21356;SDS011;10836;53.068;18.234;2023-06-26T00:08:55;10.75;;;6.68;;
21356;SDS011;10836;53.068;18.234;2023-06-26T00:11:25;14.48;;;7.47;;
21356;SDS011;10836;53.068;18.234;2023-06-26T00:13:53;11.05;;;7.30;;
21356;SDS011;10836;53.068;18.234;2023-06-26T00:16:21;9.82;;;6.38;;
21356;SDS011;10836;53.068;18.234;2023-06-26T00:18:48;15.18;;;7.45;;
21356;SDS011;10836;53.068;18.234;2023-06-26T00:21:15;14.45;;;7.18;;
21356;SDS011;10836;53.068;18.234;2023-06-26T00:23:42;11.68;;;6.78;;
21356;SDS011;10836;53.068;18.234;2023-06-26T00:26:09;11.10;;;6.47;;
21356;SDS011;10836;53.068;18.234;2023-06-26T00:28:36;12.30;;;7.15;;
21356;SDS011;10836;53.068;18.234;2023-06-26T00:31:04;12.05;;;7.40;;
21356;SDS011;10836;53.068;18.234;2023-06-26T00:33:31;12.60;;;7.10;;
21356;SDS011;10836;53.068;18.234;2023-06-26T00:35:58;9.90;;;6.45;;
21356;SDS011;10836;53.068;18.234;2023-06-26T00:38:25;13.80;;;7.75;;
21356;SDS011;10836;53.068;18.234;2023-06-26T00:40:52;11.85;;;7.10;;
21356;SDS011;10836;53.068;18.234;2023-06-26T00:43:22;10.32;;;7.13;;
21356;SDS011;10836;53.068;18.234;2023-06-26T00:45:49;13.07;;;6.47;;
21356;SDS011;10836;53.068;18.234;2023-06-26T00:48:16;13.35;;;7.05;;
21356;SDS011;10836;53.068;18.234;2023-06-26T00:50:44;11.65;;;7.30;;
21356;SDS011;10836;53.068;18.234;2023-06-26T00:53:11;10.38;;;7.32;;
21356;SDS011;10836;53.068;18.234;2023-06-26T00:55:39;9.90;;;6.55;;
21356;SDS011;10836;53.068;18.234;2023-06-26T00:58:08;11.32;;;6.53;;
21356;SDS011;10836;53.068;18.234;2023-06-26T01:00:35;11.98;;;7.25;;
21356;SDS011;10836;53.068;18.234;2023-06-26T01:03:03;9.95;;;6.43;;
21356;SDS011;10836;53.068;18.234;2023-06-26T01:05:31;11.25;;;7.10;;
21356;SDS011;10836;53.068;18.234;2023-06-26T01:07:58;11.93;;;7.05;;
21356;SDS011;10836;53.068;18.234;2023-06-26T01:10:26;12.68;;;6.95;;
21356;SDS011;10836;53.068;18.234;2023-06-26T01:12:55;15.65;;;6.70;;
21356;SDS011;10836;53.068;18.234;2023-06-26T01:15:23;11.52;;;6.88;;
21356;SDS011;10836;53.068;18.234;2023-06-26T01:17:50;10.32;;;6.85;;
21356;SDS011;10836;53.068;18.234;2023-06-26T01:20:18;12.70;;;6.95;;
21356;SDS011;10836;53.068;18.234;2023-06-26T01:22:52;13.68;;;7.50;;
21356;SDS011;10836;53.068;18.234;2023-06-26T01:28:21;11.32;;;7.15;;
21356;SDS011;10836;53.068;18.234;2023-06-26T01:30:49;12.35;;;7.35;;
21356;SDS011;10836;53.068;18.234;2023-06-26T01:33:17;9.50;;;6.28;;
21356;SDS011;10836;53.068;18.234;2023-06-26T01:35:45;11.75;;;7.45;;
21356;SDS011;10836;53.068;18.234;2023-06-26T01:38:16;10.70;;;7.28;;
21356;SDS011;10836;53.068;18.234;2023-06-26T01:40:45;13.35;;;8.15;;
21356;SDS011;10836;53.068;18.234;2023-06-26T01:43:24;13.77;;;8.20;;
21356;SDS011;10836;53.068;18.234;2023-06-26T01:46:16;13.52;;;7.60;;
21356;SDS011;10836;53.068;18.234;2023-06-26T01:49:10;12.82;;;7.88;;
21356;SDS011;10836;53.068;18.234;2023-06-26T01:52:07;12.00;;;8.02;;
21356;SDS011;10836;53.068;18.234;2023-06-26T01:55:25;10.95;;;7.25;;
21356;SDS011;10836;53.068;18.234;2023-06-26T01:57:37;12.82;;;7.63;;
21356;SDS011;10836;53.068;18.234;2023-06-26T02:00:05;11.27;;;7.20;;
21356;SDS011;10836;53.068;18.234;2023-06-26T02:02:42;11.07;;;7.32;;
21356;SDS011;10836;53.068;18.234;2023-06-26T02:05:13;14.95;;;8.10;;
21356;SDS011;10836;53.068;18.234;2023-06-26T02:07:40;13.82;;;7.80;;
21356;SDS011;10836;53.068;18.234;2023-06-26T02:10:08;16.80;;;8.20;;
21356;SDS011;10836;53.068;18.234;2023-06-26T02:12:36;11.18;;;6.80;;
21356;SDS011;10836;53.068;18.234;2023-06-26T02:15:03;11.32;;;7.28;;
21356;SDS011;10836;53.068;18.234;2023-06-26T02:17:32;12.60;;;8.20;;
21356;SDS011;10836;53.068;18.234;2023-06-26T02:19:59;13.57;;;8.02;;
21356;SDS011;10836;53.068;18.234;2023-06-26T02:22:27;14.13;;;7.00;;
21356;SDS011;10836;53.068;18.234;2023-06-26T02:24:55;14.23;;;7.65;;
21356;SDS011;10836;53.068;18.234;2023-06-26T02:27:22;12.32;;;7.25;;
21356;SDS011;10836;53.068;18.234;2023-06-26T02:29:49;14.18;;;8.43;;
21356;SDS011;10836;53.068;18.234;2023-06-26T02:32:16;14.67;;;8.00;;
21356;SDS011;10836;53.068;18.234;2023-06-26T02:34:43;13.00;;;7.43;;
21356;SDS011;10836;53.068;18.234;2023-06-26T02:37:10;16.43;;;8.37;;
21356;SDS011;10836;53.068;18.234;2023-06-26T02:39:38;14.68;;;8.20;;
21356;SDS011;10836;53.068;18.234;2023-06-26T02:42:06;10.57;;;7.40;;
21356;SDS011;10836;53.068;18.234;2023-06-26T02:44:34;10.88;;;7.72;;
21356;SDS011;10836;53.068;18.234;2023-06-26T02:47:01;15.93;;;7.75;;
21356;SDS011;10836;53.068;18.234;2023-06-26T02:49:31;13.52;;;8.45;;
21356;SDS011;10836;53.068;18.234;2023-06-26T02:51:58;16.20;;;8.38;;
21356;SDS011;10836;53.068;18.234;2023-06-26T02:54:28;12.65;;;7.82;;
21356;SDS011;10836;53.068;18.234;2023-06-26T02:57:01;12.00;;;7.15;;
21356;SDS011;10836;53.068;18.234;2023-06-26T02:59:30;10.18;;;7.25;;
21356;SDS011;10836;53.068;18.234;2023-06-26T03:01:57;10.77;;;7.28;;
21356;SDS011;10836;53.068;18.234;2023-06-26T03:04:31;12.15;;;7.45;;
21356;SDS011;10836;53.068;18.234;2023-06-26T03:06:58;12.45;;;6.85;;
21356;SDS011;10836;53.068;18.234;2023-06-26T03:09:25;13.20;;;7.70;;
21356;SDS011;10836;53.068;18.234;2023-06-26T03:11:53;12.88;;;8.35;;
21356;SDS011;10836;53.068;18.234;2023-06-26T03:14:22;14.88;;;7.72;;
21356;SDS011;10836;53.068;18.234;2023-06-26T03:16:49;16.85;;;8.63;;
21356;SDS011;10836;53.068;18.234;2023-06-26T03:19:20;11.18;;;6.93;;
21356;SDS011;10836;53.068;18.234;2023-06-26T03:22:07;15.00;;;7.60;;
21356;SDS011;10836;53.068;18.234;2023-06-26T03:24:33;20.80;;;8.30;;
21356;SDS011;10836;53.068;18.234;2023-06-26T03:27:01;20.02;;;8.85;;
21356;SDS011;10836;53.068;18.234;2023-06-26T03:29:28;12.77;;;7.70;;
21356;SDS011;10836;53.068;18.234;2023-06-26T03:31:57;12.70;;;7.82;;
21356;SDS011;10836;53.068;18.234;2023-06-26T03:34:23;14.38;;;8.52;;
21356;SDS011;10836;53.068;18.234;2023-06-26T03:36:51;13.52;;;7.85;;
21356;SDS011;10836;53.068;18.234;2023-06-26T03:39:17;14.48;;;8.82;;
21356;SDS011;10836;53.068;18.234;2023-06-26T03:41:44;12.80;;;7.78;;
21356;SDS011;10836;53.068;18.234;2023-06-26T03:44:11;14.98;;;8.38;;
21356;SDS011;10836;53.068;18.234;2023-06-26T03:46:46;12.23;;;7.78;;
21356;SDS011;10836;53.068;18.234;2023-06-26T03:49:13;12.45;;;8.30;;
21356;SDS011;10836;53.068;18.234;2023-06-26T03:51:40;13.57;;;8.02;;
21356;SDS011;10836;53.068;18.234;2023-06-26T03:54:07;11.55;;;7.47;;
21356;SDS011;10836;53.068;18.234;2023-06-26T03:56:35;11.88;;;7.50;;
21356;SDS011;10836;53.068;18.234;2023-06-26T03:59:04;13.20;;;8.10;;
21356;SDS011;10836;53.068;18.234;2023-06-26T04:01:31;11.85;;;7.90;;
21356;SDS011;10836;53.068;18.234;2023-06-26T04:04:00;17.70;;;7.90;;
21356;SDS011;10836;53.068;18.234;2023-06-26T04:06:27;16.05;;;7.85;;
21356;SDS011;10836;53.068;18.234;2023-06-26T04:08:54;14.23;;;8.15;;
21356;SDS011;10836;53.068;18.234;2023-06-26T04:11:22;13.90;;;7.85;;
21356;SDS011;10836;53.068;18.234;2023-06-26T04:13:48;17.05;;;8.13;;
21356;SDS011;10836;53.068;18.234;2023-06-26T04:16:16;13.98;;;8.90;;
21356;SDS011;10836;53.068;18.234;2023-06-26T04:18:42;14.98;;;8.82;;
21356;SDS011;10836;53.068;18.234;2023-06-26T04:21:10;17.60;;;9.65;;
21356;SDS011;10836;53.068;18.234;2023-06-26T04:23:38;17.30;;;8.85;;
21356;SDS011;10836;53.068;18.234;2023-06-26T04:26:07;20.27;;;9.48;;
21356;SDS011;10836;53.068;18.234;2023-06-26T04:28:35;11.68;;;9.02;;
21356;SDS011;10836;53.068;18.234;2023-06-26T04:31:03;17.20;;;8.90;;
21356;SDS011;10836;53.068;18.234;2023-06-26T04:33:30;21.15;;;9.65;;
21356;SDS011;10836;53.068;18.234;2023-06-26T04:35:57;16.92;;;10.50;;
21356;SDS011;10836;53.068;18.234;2023-06-26T04:38:24;17.70;;;11.38;;
21356;SDS011;10836;53.068;18.234;2023-06-26T04:40:51;21.35;;;10.82;;
21356;SDS011;10836;53.068;18.234;2023-06-26T04:43:18;18.75;;;11.30;;
21356;SDS011;10836;53.068;18.234;2023-06-26T04:45:45;22.42;;;12.02;;
21356;SDS011;10836;53.068;18.234;2023-06-26T04:48:12;15.57;;;10.20;;
21356;SDS011;10836;53.068;18.234;2023-06-26T04:50:40;17.42;;;10.98;;
21356;SDS011;10836;53.068;18.234;2023-06-26T04:53:07;18.00;;;11.23;;
21356;SDS011;10836;53.068;18.234;2023-06-26T04:55:34;20.67;;;11.25;;
21356;SDS011;10836;53.068;18.234;2023-06-26T04:58:05;21.80;;;10.60;;
21356;SDS011;10836;53.068;18.234;2023-06-26T05:00:32;26.08;;;11.95;;
21356;SDS011;10836;53.068;18.234;2023-06-26T05:03:03;32.13;;;11.25;;
21356;SDS011;10836;53.068;18.234;2023-06-26T05:05:32;24.75;;;11.40;;
21356;SDS011;10836;53.068;18.234;2023-06-26T05:08:06;18.75;;;9.75;;
21356;SDS011;10836;53.068;18.234;2023-06-26T05:10:40;19.77;;;11.05;;
21356;SDS011;10836;53.068;18.234;2023-06-26T05:13:07;14.77;;;9.52;;
21356;SDS011;10836;53.068;18.234;2023-06-26T05:15:34;21.52;;;11.10;;
21356;SDS011;10836;53.068;18.234;2023-06-26T05:18:01;20.75;;;10.70;;
21356;SDS011;10836;53.068;18.234;2023-06-26T05:20:28;15.90;;;10.15;;
21356;SDS011;10836;53.068;18.234;2023-06-26T05:22:55;14.38;;;8.82;;
21356;SDS011;10836;53.068;18.234;2023-06-26T05:25:23;15.23;;;9.00;;
21356;SDS011;10836;53.068;18.234;2023-06-26T05:27:51;15.52;;;9.00;;
21356;SDS011;10836;53.068;18.234;2023-06-26T05:30:18;15.50;;;9.73;;
21356;SDS011;10836;53.068;18.234;2023-06-26T05:32:46;19.33;;;9.95;;
21356;SDS011;10836;53.068;18.234;2023-06-26T05:35:15;20.77;;;10.02;;
21356;SDS011;10836;53.068;18.234;2023-06-26T05:37:43;17.15;;;9.73;;
21356;SDS011;10836;53.068;18.234;2023-06-26T05:40:11;14.63;;;9.13;;
21356;SDS011;10836;53.068;18.234;2023-06-26T05:42:39;14.05;;;8.98;;
21356;SDS011;10836;53.068;18.234;2023-06-26T05:45:06;15.88;;;9.13;;
21356;SDS011;10836;53.068;18.234;2023-06-26T05:47:33;18.55;;;9.25;;
21356;SDS011;10836;53.068;18.234;2023-06-26T05:50:01;21.65;;;9.10;;
21356;SDS011;10836;53.068;18.234;2023-06-26T05:52:29;12.55;;;8.63;;
21356;SDS011;10836;53.068;18.234;2023-06-26T05:54:56;12.68;;;8.63;;
21356;SDS011;10836;53.068;18.234;2023-06-26T05:57:27;13.38;;;8.32;;
21356;SDS011;10836;53.068;18.234;2023-06-26T05:59:55;13.20;;;8.48;;
21356;SDS011;10836;53.068;18.234;2023-06-26T06:02:22;10.95;;;7.15;;
21356;SDS011;10836;53.068;18.234;2023-06-26T06:04:50;12.07;;;6.50;;
21356;SDS011;10836;53.068;18.234;2023-06-26T06:07:17;10.45;;;6.55;;
21356;SDS011;10836;53.068;18.234;2023-06-26T06:09:44;11.65;;;6.30;;
21356;SDS011;10836;53.068;18.234;2023-06-26T06:12:11;10.20;;;5.93;;
21356;SDS011;10836;53.068;18.234;2023-06-26T06:14:38;8.88;;;5.85;;
21356;SDS011;10836;53.068;18.234;2023-06-26T06:17:05;13.57;;;6.22;;
21356;SDS011;10836;53.068;18.234;2023-06-26T06:19:32;16.05;;;6.72;;
21356;SDS011;10836;53.068;18.234;2023-06-26T06:21:59;10.48;;;5.97;;
21356;SDS011;10836;53.068;18.234;2023-06-26T06:24:26;11.43;;;6.07;;
21356;SDS011;10836;53.068;18.234;2023-06-26T06:26:53;13.50;;;5.93;;
21356;SDS011;10836;53.068;18.234;2023-06-26T06:29:20;9.52;;;5.88;;
21356;SDS011;10836;53.068;18.234;2023-06-26T06:31:47;13.95;;;6.60;;
21356;SDS011;10836;53.068;18.234;2023-06-26T06:34:14;9.35;;;5.70;;
21356;SDS011;10836;53.068;18.234;2023-06-26T06:36:41;14.73;;;6.18;;
21356;SDS011;10836;53.068;18.234;2023-06-26T06:39:08;9.50;;;6.38;;
21356;SDS011;10836;53.068;18.234;2023-06-26T06:41:35;13.85;;;7.72;;
21356;SDS011;10836;53.068;18.234;2023-06-26T06:44:05;8.70;;;6.30;;
21356;SDS011;10836;53.068;18.234;2023-06-26T06:46:32;12.82;;;7.25;;
21356;SDS011;10836;53.068;18.234;2023-06-26T06:49:00;18.13;;;7.57;;
21356;SDS011;10836;53.068;18.234;2023-06-26T06:51:27;10.55;;;6.97;;
21356;SDS011;10836;53.068;18.234;2023-06-26T06:53:54;10.43;;;6.40;;
21356;SDS011;10836;53.068;18.234;2023-06-26T06:56:21;13.98;;;6.43;;
21356;SDS011;10836;53.068;18.234;2023-06-26T06:58:48;14.77;;;7.00;;
21356;SDS011;10836;53.068;18.234;2023-06-26T07:01:15;18.13;;;7.28;;
21356;SDS011;10836;53.068;18.234;2023-06-26T07:03:42;9.38;;;6.10;;
21356;SDS011;10836;53.068;18.234;2023-06-26T07:06:09;9.10;;;6.15;;
21356;SDS011;10836;53.068;18.234;2023-06-26T07:08:36;9.10;;;5.93;;
21356;SDS011;10836;53.068;18.234;2023-06-26T07:11:03;13.23;;;6.28;;
21356;SDS011;10836;53.068;18.234;2023-06-26T07:13:30;10.02;;;5.80;;
21356;SDS011;10836;53.068;18.234;2023-06-26T07:15:57;8.52;;;5.95;;
21356;SDS011;10836;53.068;18.234;2023-06-26T07:18:24;8.02;;;5.63;;
21356;SDS011;10836;53.068;18.234;2023-06-26T07:20:52;13.00;;;6.07;;
21356;SDS011;10836;53.068;18.234;2023-06-26T07:23:19;9.40;;;6.13;;
21356;SDS011;10836;53.068;18.234;2023-06-26T07:25:46;10.57;;;5.20;;
21356;SDS011;10836;53.068;18.234;2023-06-26T07:28:12;11.07;;;4.97;;
21356;SDS011;10836;53.068;18.234;2023-06-26T07:30:40;20.15;;;6.68;;
21356;SDS011;10836;53.068;18.234;2023-06-26T07:33:07;6.75;;;4.80;;
21356;SDS011;10836;53.068;18.234;2023-06-26T07:35:35;7.32;;;4.85;;
21356;SDS011;10836;53.068;18.234;2023-06-26T07:38:02;8.73;;;5.55;;
21356;SDS011;10836;53.068;18.234;2023-06-26T07:40:29;7.65;;;5.70;;
21356;SDS011;10836;53.068;18.234;2023-06-26T07:42:55;7.00;;;5.13;;
21356;SDS011;10836;53.068;18.234;2023-06-26T07:45:25;10.20;;;4.78;;
21356;SDS011;10836;53.068;18.234;2023-06-26T07:47:53;6.57;;;4.60;;
21356;SDS011;10836;53.068;18.234;2023-06-26T07:50:20;7.68;;;5.18;;
21356;SDS011;10836;53.068;18.234;2023-06-26T07:52:49;7.40;;;4.70;;
21356;SDS011;10836;53.068;18.234;2023-06-26T07:55:16;9.95;;;5.03;;
21356;SDS011;10836;53.068;18.234;2023-06-26T07:57:43;6.65;;;4.93;;
21356;SDS011;10836;53.068;18.234;2023-06-26T08:00:12;8.57;;;5.38;;
21356;SDS011;10836;53.068;18.234;2023-06-26T08:02:39;9.85;;;6.15;;
21356;SDS011;10836;53.068;18.234;2023-06-26T08:05:07;17.38;;;7.03;;
21356;SDS011;10836;53.068;18.234;2023-06-26T08:07:34;8.80;;;6.30;;
21356;SDS011;10836;53.068;18.234;2023-06-26T08:10:01;9.63;;;5.43;;
21356;SDS011;10836;53.068;18.234;2023-06-26T08:12:29;8.57;;;5.40;;
21356;SDS011;10836;53.068;18.234;2023-06-26T08:14:56;10.73;;;5.80;;
21356;SDS011;10836;53.068;18.234;2023-06-26T08:17:23;10.55;;;5.68;;
21356;SDS011;10836;53.068;18.234;2023-06-26T08:19:50;8.90;;;5.35;;
21356;SDS011;10836;53.068;18.234;2023-06-26T08:22:17;12.57;;;5.90;;
21356;SDS011;10836;53.068;18.234;2023-06-26T08:24:44;6.90;;;5.10;;
21356;SDS011;10836;53.068;18.234;2023-06-26T08:27:11;7.43;;;5.30;;
21356;SDS011;10836;53.068;18.234;2023-06-26T08:29:38;7.18;;;5.03;;
21356;SDS011;10836;53.068;18.234;2023-06-26T08:32:05;6.65;;;5.10;;
21356;SDS011;10836;53.068;18.234;2023-06-26T08:34:32;6.75;;;4.95;;
21356;SDS011;10836;53.068;18.234;2023-06-26T08:36:59;7.47;;;4.60;;
21356;SDS011;10836;53.068;18.234;2023-06-26T08:39:27;12.10;;;5.38;;
21356;SDS011;10836;53.068;18.234;2023-06-26T08:41:54;9.93;;;5.40;;
21356;SDS011;10836;53.068;18.234;2023-06-26T08:44:21;10.93;;;5.30;;
21356;SDS011;10836;53.068;18.234;2023-06-26T08:46:51;6.38;;;4.95;;
21356;SDS011;10836;53.068;18.234;2023-06-26T08:49:25;7.57;;;4.75;;
21356;SDS011;10836;53.068;18.234;2023-06-26T08:52:06;6.75;;;4.82;;
21356;SDS011;10836;53.068;18.234;2023-06-26T08:54:43;7.78;;;4.65;;
21356;SDS011;10836;53.068;18.234;2023-06-26T08:57:15;5.13;;;4.55;;
21356;SDS011;10836;53.068;18.234;2023-06-26T08:59:46;8.77;;;4.60;;
21356;SDS011;10836;53.068;18.234;2023-06-26T09:02:14;8.50;;;4.82;;
21356;SDS011;10836;53.068;18.234;2023-06-26T09:04:42;6.90;;;4.40;;
21356;SDS011;10836;53.068;18.234;2023-06-26T09:07:09;8.23;;;4.60;;
21356;SDS011;10836;53.068;18.234;2023-06-26T09:09:36;8.38;;;4.57;;
21356;SDS011;10836;53.068;18.234;2023-06-26T09:12:03;8.50;;;4.38;;
21356;SDS011;10836;53.068;18.234;2023-06-26T09:14:30;9.82;;;4.15;;
21356;SDS011;10836;53.068;18.234;2023-06-26T09:16:57;9.73;;;4.43;;
21356;SDS011;10836;53.068;18.234;2023-06-26T09:19:24;7.05;;;4.43;;
21356;SDS011;10836;53.068;18.234;2023-06-26T09:21:52;5.95;;;4.25;;
21356;SDS011;10836;53.068;18.234;2023-06-26T09:24:20;9.95;;;4.38;;
21356;SDS011;10836;53.068;18.234;2023-06-26T09:26:49;5.82;;;4.45;;
21356;SDS011;10836;53.068;18.234;2023-06-26T09:29:18;6.68;;;4.10;;
21356;SDS011;10836;53.068;18.234;2023-06-26T09:31:46;8.70;;;4.40;;
21356;SDS011;10836;53.068;18.234;2023-06-26T09:34:13;7.63;;;4.40;;
21356;SDS011;10836;53.068;18.234;2023-06-26T09:36:40;8.70;;;4.57;;
21356;SDS011;10836;53.068;18.234;2023-06-26T09:39:11;8.50;;;4.53;;
21356;SDS011;10836;53.068;18.234;2023-06-26T09:41:43;6.82;;;4.40;;
21356;SDS011;10836;53.068;18.234;2023-06-26T09:44:13;6.15;;;4.35;;
21356;SDS011;10836;53.068;18.234;2023-06-26T09:46:41;6.80;;;3.83;;
21356;SDS011;10836;53.068;18.234;2023-06-26T09:49:11;6.03;;;3.80;;
21356;SDS011;10836;53.068;18.234;2023-06-26T09:51:39;8.52;;;3.95;;
21356;SDS011;10836;53.068;18.234;2023-06-26T09:54:08;7.60;;;4.00;;
21356;SDS011;10836;53.068;18.234;2023-06-26T09:56:36;7.20;;;4.05;;
21356;SDS011;10836;53.068;18.234;2023-06-26T09:59:03;7.03;;;4.22;;
21356;SDS011;10836;53.068;18.234;2023-06-26T10:01:32;5.72;;;3.75;;
21356;SDS011;10836;53.068;18.234;2023-06-26T10:04:00;6.13;;;3.72;;
21356;SDS011;10836;53.068;18.234;2023-06-26T10:06:33;8.15;;;4.40;;
21356;SDS011;10836;53.068;18.234;2023-06-26T10:09:02;8.02;;;3.80;;
21356;SDS011;10836;53.068;18.234;2023-06-26T10:11:33;8.18;;;3.80;;
21356;SDS011;10836;53.068;18.234;2023-06-26T10:14:07;7.82;;;3.80;;
21356;SDS011;10836;53.068;18.234;2023-06-26T10:16:44;5.97;;;4.30;;
21356;SDS011;10836;53.068;18.234;2023-06-26T10:19:14;7.50;;;4.05;;
21356;SDS011;10836;53.068;18.234;2023-06-26T10:21:54;6.03;;;3.85;;
21356;SDS011;10836;53.068;18.234;2023-06-26T10:24:25;6.07;;;3.90;;
21356;SDS011;10836;53.068;18.234;2023-06-26T10:26:57;5.55;;;3.35;;
21356;SDS011;10836;53.068;18.234;2023-06-26T10:29:28;6.38;;;3.90;;
21356;SDS011;10836;53.068;18.234;2023-06-26T10:31:57;5.75;;;3.45;;
21356;SDS011;10836;53.068;18.234;2023-06-26T10:34:30;4.32;;;3.38;;
21356;SDS011;10836;53.068;18.234;2023-06-26T10:37:01;6.82;;;3.85;;
21356;SDS011;10836;53.068;18.234;2023-06-26T10:39:41;6.00;;;3.60;;
21356;SDS011;10836;53.068;18.234;2023-06-26T10:42:12;6.15;;;3.50;;
21356;SDS011;10836;53.068;18.234;2023-06-26T10:44:40;5.20;;;3.75;;
21356;SDS011;10836;53.068;18.234;2023-06-26T10:47:09;6.35;;;3.97;;
21356;SDS011;10836;53.068;18.234;2023-06-26T10:49:37;4.95;;;3.30;;
21356;SDS011;10836;53.068;18.234;2023-06-26T10:52:09;137.60;;;13.55;;
21356;SDS011;10836;53.068;18.234;2023-06-26T10:54:36;15.57;;;4.20;;
21356;SDS011;10836;53.068;18.234;2023-06-26T10:57:04;9.68;;;4.22;;
21356;SDS011;10836;53.068;18.234;2023-06-26T10:59:34;5.60;;;3.88;;
21356;SDS011;10836;53.068;18.234;2023-06-26T11:02:02;5.13;;;3.75;;
21356;SDS011;10836;53.068;18.234;2023-06-26T11:07:18;5.28;;;3.83;;
21356;SDS011;10836;53.068;18.234;2023-06-26T11:09:57;6.47;;;3.90;;
21356;SDS011;10836;53.068;18.234;2023-06-26T11:15:13;16.73;;;4.28;;
21356;SDS011;10836;53.068;18.234;2023-06-26T11:17:42;7.30;;;4.10;;
21356;SDS011;10836;53.068;18.234;2023-06-26T11:20:11;6.28;;;3.92;;
21356;SDS011;10836;53.068;18.234;2023-06-26T11:22:42;17.30;;;4.45;;
21356;SDS011;10836;53.068;18.234;2023-06-26T11:25:09;5.95;;;4.00;;
21356;SDS011;10836;53.068;18.234;2023-06-26T11:30:05;9.90;;;3.75;;
21356;SDS011;10836;53.068;18.234;2023-06-26T11:32:33;16.52;;;4.80;;
21356;SDS011;10836;53.068;18.234;2023-06-26T11:35:00;18.50;;;4.80;;
21356;SDS011;10836;53.068;18.234;2023-06-26T11:37:27;7.10;;;3.70;;
21356;SDS011;10836;53.068;18.234;2023-06-26T11:39:54;4.80;;;3.85;;
21356;SDS011;10836;53.068;18.234;2023-06-26T11:42:22;9.10;;;4.18;;
21356;SDS011;10836;53.068;18.234;2023-06-26T11:44:48;6.28;;;4.65;;
21356;SDS011;10836;53.068;18.234;2023-06-26T11:47:19;19.85;;;5.57;;
21356;SDS011;10836;53.068;18.234;2023-06-26T11:49:48;10.80;;;4.32;;
21356;SDS011;10836;53.068;18.234;2023-06-26T11:52:16;29.45;;;6.20;;
21356;SDS011;10836;53.068;18.234;2023-06-26T11:54:44;12.27;;;4.72;;
21356;SDS011;10836;53.068;18.234;2023-06-26T11:57:13;7.65;;;4.65;;
21356;SDS011;10836;53.068;18.234;2023-06-26T11:59:41;7.10;;;4.35;;
21356;SDS011;10836;53.068;18.234;2023-06-26T12:02:13;5.93;;;4.35;;
21356;SDS011;10836;53.068;18.234;2023-06-26T12:04:41;6.15;;;4.25;;
21356;SDS011;10836;53.068;18.234;2023-06-26T12:07:10;6.15;;;4.00;;
21356;SDS011;10836;53.068;18.234;2023-06-26T12:09:39;10.85;;;4.57;;
21356;SDS011;10836;53.068;18.234;2023-06-26T12:12:09;7.97;;;4.47;;
21356;SDS011;10836;53.068;18.234;2023-06-26T12:14:37;9.73;;;4.65;;
21356;SDS011;10836;53.068;18.234;2023-06-26T12:17:07;8.32;;;4.25;;
21356;SDS011;10836;53.068;18.234;2023-06-26T12:19:37;7.88;;;4.80;;
21356;SDS011;10836;53.068;18.234;2023-06-26T12:22:06;6.88;;;4.53;;
21356;SDS011;10836;53.068;18.234;2023-06-26T12:24:35;8.18;;;4.20;;
21356;SDS011;10836;53.068;18.234;2023-06-26T12:27:11;14.00;;;6.00;;
21356;SDS011;10836;53.068;18.234;2023-06-26T12:29:41;8.43;;;5.10;;
21356;SDS011;10836;53.068;18.234;2023-06-26T12:32:13;8.90;;;4.70;;
21356;SDS011;10836;53.068;18.234;2023-06-26T12:34:41;10.43;;;4.50;;
21356;SDS011;10836;53.068;18.234;2023-06-26T12:37:11;10.55;;;5.30;;
21356;SDS011;10836;53.068;18.234;2023-06-26T12:42:25;6.70;;;4.97;;
21356;SDS011;10836;53.068;18.234;2023-06-26T12:44:54;8.95;;;4.60;;
21356;SDS011;10836;53.068;18.234;2023-06-26T12:47:24;5.45;;;4.40;;
21356;SDS011;10836;53.068;18.234;2023-06-26T12:49:54;6.15;;;4.10;;
21356;SDS011;10836;53.068;18.234;2023-06-26T12:52:21;9.02;;;5.00;;
21356;SDS011;10836;53.068;18.234;2023-06-26T12:54:51;10.93;;;4.90;;
21356;SDS011;10836;53.068;18.234;2023-06-26T12:57:20;6.82;;;5.13;;
21356;SDS011;10836;53.068;18.234;2023-06-26T12:59:47;9.57;;;4.88;;
21356;SDS011;10836;53.068;18.234;2023-06-26T13:02:14;8.93;;;4.82;;
21356;SDS011;10836;53.068;18.234;2023-06-26T13:04:41;7.40;;;4.70;;
21356;SDS011;10836;53.068;18.234;2023-06-26T13:07:11;6.53;;;4.40;;
21356;SDS011;10836;53.068;18.234;2023-06-26T13:09:38;8.02;;;4.95;;
21356;SDS011;10836;53.068;18.234;2023-06-26T13:12:08;7.10;;;5.07;;
21356;SDS011;10836;53.068;18.234;2023-06-26T13:14:35;8.48;;;4.70;;
21356;SDS011;10836;53.068;18.234;2023-06-26T13:17:03;12.20;;;4.82;;
21356;SDS011;10836;53.068;18.234;2023-06-26T13:19:35;9.43;;;4.95;;
21356;SDS011;10836;53.068;18.234;2023-06-26T13:22:02;6.70;;;4.80;;
21356;SDS011;10836;53.068;18.234;2023-06-26T13:24:29;10.50;;;4.55;;
21356;SDS011;10836;53.068;18.234;2023-06-26T13:26:56;6.78;;;4.57;;
21356;SDS011;10836;53.068;18.234;2023-06-26T13:29:23;7.85;;;4.32;;
21356;SDS011;10836;53.068;18.234;2023-06-26T13:31:50;11.48;;;5.07;;
21356;SDS011;10836;53.068;18.234;2023-06-26T13:34:20;9.88;;;4.78;;
21356;SDS011;10836;53.068;18.234;2023-06-26T13:36:48;7.00;;;4.90;;
21356;SDS011;10836;53.068;18.234;2023-06-26T13:39:15;5.88;;;4.50;;
21356;SDS011;10836;53.068;18.234;2023-06-26T13:41:43;6.75;;;4.50;;
21356;SDS011;10836;53.068;18.234;2023-06-26T13:44:10;7.68;;;4.30;;
21356;SDS011;10836;53.068;18.234;2023-06-26T13:46:57;6.82;;;4.32;;
21356;SDS011;10836;53.068;18.234;2023-06-26T13:49:24;8.20;;;4.82;;
21356;SDS011;10836;53.068;18.234;2023-06-26T13:51:51;9.57;;;4.07;;
21356;SDS011;10836;53.068;18.234;2023-06-26T13:54:18;7.88;;;4.55;;
21356;SDS011;10836;53.068;18.234;2023-06-26T13:56:45;12.35;;;4.80;;
21356;SDS011;10836;53.068;18.234;2023-06-26T13:59:12;7.85;;;4.80;;
21356;SDS011;10836;53.068;18.234;2023-06-26T14:01:39;8.15;;;4.88;;
21356;SDS011;10836;53.068;18.234;2023-06-26T14:04:09;8.00;;;4.63;;
21356;SDS011;10836;53.068;18.234;2023-06-26T14:06:36;7.95;;;4.32;;
21356;SDS011;10836;53.068;18.234;2023-06-26T14:09:03;7.32;;;4.32;;
21356;SDS011;10836;53.068;18.234;2023-06-26T14:11:31;5.63;;;4.15;;
21356;SDS011;10836;53.068;18.234;2023-06-26T14:13:59;7.22;;;4.20;;
21356;SDS011;10836;53.068;18.234;2023-06-26T14:16:26;11.05;;;4.68;;
21356;SDS011;10836;53.068;18.234;2023-06-26T14:18:55;9.35;;;4.88;;
21356;SDS011;10836;53.068;18.234;2023-06-26T14:21:23;5.75;;;4.72;;
21356;SDS011;10836;53.068;18.234;2023-06-26T14:23:50;5.78;;;4.70;;
21356;SDS011;10836;53.068;18.234;2023-06-26T14:26:17;7.28;;;4.80;;
21356;SDS011;10836;53.068;18.234;2023-06-26T14:28:44;7.60;;;4.38;;
21356;SDS011;10836;53.068;18.234;2023-06-26T14:31:12;6.18;;;4.47;;
21356;SDS011;10836;53.068;18.234;2023-06-26T14:33:39;10.52;;;4.65;;
21356;SDS011;10836;53.068;18.234;2023-06-26T14:36:06;5.95;;;4.38;;
21356;SDS011;10836;53.068;18.234;2023-06-26T14:38:33;6.68;;;4.22;;
21356;SDS011;10836;53.068;18.234;2023-06-26T14:41:00;6.95;;;4.50;;
21356;SDS011;10836;53.068;18.234;2023-06-26T14:43:28;8.68;;;4.32;;
21356;SDS011;10836;53.068;18.234;2023-06-26T14:45:55;8.23;;;4.30;;
21356;SDS011;10836;53.068;18.234;2023-06-26T14:48:23;8.93;;;4.30;;